Lebanon Springs, New York
Current Conditions -  °F | °C
As of 9:03 PM on Monday 24 Nov 2014 (Local Time) from KPSF Reporting Station
Overcast Overcast  
Wind Chill: 61°   Ceiling: 3900
Heat Index: 61°   Visibility: 10mi
Dew Point: 53°   Wind: 13mph
Humidity: 75%   Direction: 190°S
Pressure: 29.64"   Gusts: 20mph
Location:  42.4821°N, 73.3747°W
Report Text: KPSF 250203Z AUTO 19011G17KT 10SM SCT029 OVC039 16/12 A2964 RMK AO2 T01610117
Loading
Personal Weather Stations






























Interactive Weather Map New forecast layout! Learn more

10-Day Weather Forecast

Advertisements
Track Severe Weather on mobile